createdAt,value
2018-07-25T00:01:56.923Z,77.88
2018-07-25T00:04:26.239Z,77.93
2018-07-25T00:06:55.590Z,77.72
2018-07-25T00:09:24.883Z,77.70
2018-07-25T00:11:54.179Z,78.35
2018-07-25T00:14:23.483Z,78.79
2018-07-25T00:16:52.804Z,78.90
2018-07-25T00:19:22.098Z,78.86
2018-07-25T00:21:51.403Z,78.93
2018-07-25T00:24:20.718Z,78.18
2018-07-25T00:26:50.050Z,78.40
2018-07-25T00:29:19.390Z,78.93
2018-07-25T00:31:48.751Z,77.97
2018-07-25T00:34:18.043Z,78.26
2018-07-25T00:36:47.338Z,78.44
2018-07-25T00:39:16.630Z,78.11
2018-07-25T00:41:45.952Z,79.28
2018-07-25T00:44:15.238Z,78.98
2018-07-25T00:46:44.541Z,79.20
2018-07-25T00:49:13.844Z,79.74
2018-07-25T00:51:43.151Z,78.43
2018-07-25T00:54:12.449Z,79.10
2018-07-25T00:56:41.747Z,79.14
2018-07-25T00:59:11.043Z,79.16
2018-07-25T01:01:40.379Z,78.37
2018-07-25T01:04:10.533Z,79.80
2018-07-25T01:06:39.959Z,80.21
2018-07-25T01:09:10.934Z,80.31
2018-07-25T01:11:40.303Z,80.23
2018-07-25T01:14:09.624Z,80.33
2018-07-25T01:16:38.715Z,80.24
2018-07-25T01:19:07.798Z,81.18
2018-07-25T01:21:37.139Z,80.60
2018-07-25T01:24:06.468Z,80.41
2018-07-25T01:26:35.815Z,80.21
2018-07-25T01:29:04.902Z,80.74
2018-07-25T01:31:34.230Z,80.58
2018-07-25T01:34:03.558Z,80.64
2018-07-25T01:36:32.896Z,79.68
2018-07-25T01:39:02.221Z,80.38
2018-07-25T01:41:31.314Z,80.35
2018-07-25T01:44:00.638Z,79.50
2018-07-25T01:46:29.970Z,79.77
2018-07-25T01:48:59.294Z,79.17
2018-07-25T01:51:28.704Z,79.52
2018-07-25T01:53:58.042Z,78.56
2018-07-25T01:56:27.371Z,78.50
2018-07-25T01:58:56.697Z,78.72
2018-07-25T02:01:26.023Z,78.64
2018-07-25T02:03:55.306Z,78.28
2018-07-25T02:06:25.379Z,78.57
2018-07-25T02:08:55.971Z,77.90
2018-07-25T02:11:25.039Z,78.30
2018-07-25T02:13:54.341Z,78.68
2018-07-25T02:16:23.634Z,78.73
2018-07-25T02:18:52.958Z,80.06
2018-07-25T02:21:22.258Z,79.43
2018-07-25T02:23:51.569Z,79.78
2018-07-25T02:26:20.873Z,80.27
2018-07-25T02:28:50.180Z,80.19
2018-07-25T02:31:19.476Z,80.90
2018-07-25T02:33:54.070Z,80.78
2018-07-25T02:36:23.376Z,80.18
2018-07-25T02:38:52.449Z,80.18
2018-07-25T02:41:21.745Z,80.12
2018-07-25T02:43:51.062Z,79.76
2018-07-25T02:46:20.366Z,79.80
2018-07-25T02:48:49.755Z,80.75
2018-07-25T02:51:19.042Z,81.42
2018-07-25T02:53:48.347Z,81.27
2018-07-25T02:56:17.655Z,81.58
2018-07-25T02:58:46.959Z,81.68
2018-07-25T03:01:16.280Z,82.42
2018-07-25T03:03:45.590Z,82.54
2018-07-25T03:06:14.891Z,82.60
2018-07-25T03:08:44.211Z,81.44
2018-07-25T03:11:13.517Z,81.25
2018-07-25T03:13:42.875Z,81.11
2018-07-25T03:16:11.982Z,81.25
2018-07-25T03:18:41.270Z,82.01
2018-07-25T03:21:10.343Z,81.56
2018-07-25T03:23:39.652Z,82.33
2018-07-25T03:26:09.182Z,81.61
2018-07-25T03:28:38.250Z,82.01
2018-07-25T03:31:07.555Z,82.81
2018-07-25T03:33:36.637Z,82.29
2018-07-25T03:36:05.938Z,82.66
2018-07-25T03:38:35.264Z,82.29
2018-07-25T03:41:04.614Z,82.68
2018-07-25T03:43:34.031Z,81.87
2018-07-25T03:46:03.339Z,82.23
2018-07-25T03:48:32.660Z,82.26
2018-07-25T03:51:01.727Z,83.20
2018-07-25T03:53:31.047Z,82.98
2018-07-25T03:56:00.348Z,82.60
2018-07-25T03:58:29.439Z,82.74
2018-07-25T04:00:58.811Z,82.55
2018-07-25T04:03:28.283Z,82.86
2018-07-25T04:05:57.681Z,83.60
2018-07-25T04:08:26.759Z,83.39
2018-07-25T04:10:56.166Z,83.32
2018-07-25T04:13:25.531Z,83.07
2018-07-25T04:15:54.972Z,82.84
2018-07-25T04:18:24.319Z,83.37
2018-07-25T04:20:53.751Z,83.17
2018-07-25T04:23:23.091Z,82.94
2018-07-25T04:25:52.473Z,82.40
2018-07-25T04:28:21.843Z,82.33
2018-07-25T04:30:51.221Z,83.00
2018-07-25T04:33:20.578Z,82.14
2018-07-25T04:35:49.940Z,83.66
2018-07-25T04:38:19.299Z,83.01
2018-07-25T04:40:48.697Z,83.67
2018-07-25T04:43:18.100Z,84.06
2018-07-25T04:45:47.478Z,84.35
2018-07-25T04:48:16.858Z,84.38
2018-07-25T04:50:46.238Z,83.90
2018-07-25T04:53:15.614Z,83.78
2018-07-25T04:55:44.992Z,83.52
2018-07-25T04:58:14.376Z,83.88
2018-07-25T05:00:43.522Z,83.72
2018-07-25T05:03:12.890Z,83.45
2018-07-25T05:05:42.010Z,83.61
2018-07-25T05:08:11.391Z,83.40
2018-07-25T05:10:40.783Z,83.61
2018-07-25T05:13:09.929Z,83.35
2018-07-25T05:15:39.301Z,82.07
2018-07-25T05:18:08.810Z,81.98
2018-07-25T05:20:38.416Z,81.57
2018-07-25T05:23:07.811Z,81.30
2018-07-25T05:25:36.921Z,81.39
2018-07-25T05:28:06.435Z,82.87
2018-07-25T05:30:35.814Z,81.65
2018-07-25T05:33:05.199Z,80.10
2018-07-25T05:35:34.326Z,80.11
2018-07-25T05:38:03.743Z,78.83
2018-07-25T05:40:32.834Z,79.03
2018-07-25T05:43:02.206Z,78.52
2018-07-25T05:45:31.578Z,78.78
2018-07-25T05:48:00.970Z,78.14
2018-07-25T05:50:30.339Z,78.61
2018-07-25T05:52:59.788Z,77.69
2018-07-25T05:55:29.234Z,77.96
2018-07-25T05:57:58.630Z,77.92
2018-07-25T06:00:28.002Z,78.46
2018-07-25T06:02:57.214Z,77.15
2018-07-25T06:05:26.502Z,77.79
2018-07-25T06:07:55.626Z,77.18
2018-07-25T06:10:25.012Z,76.77
2018-07-25T06:12:54.720Z,76.02
2018-07-25T06:15:24.105Z,75.40
2018-07-25T06:17:53.222Z,74.79
2018-07-25T06:20:22.590Z,75.31
2018-07-25T06:22:51.971Z,76.33
2018-07-25T06:25:21.450Z,75.05
2018-07-25T06:27:50.834Z,74.58
2018-07-25T06:30:20.342Z,74.08
2018-07-25T06:32:49.717Z,74.76
2018-07-25T06:35:18.834Z,73.88
2018-07-25T06:37:48.280Z,73.46
2018-07-25T06:40:17.587Z,72.14
2018-07-25T06:42:46.971Z,71.16
2018-07-25T06:45:16.339Z,71.61
2018-07-25T06:47:45.715Z,70.27
2018-07-25T06:50:15.093Z,69.93
2018-07-25T06:52:44.467Z,69.60
2018-07-25T06:55:13.836Z,69.08
2018-07-25T06:57:43.228Z,69.17
2018-07-25T07:00:12.551Z,68.88
2018-07-25T07:02:41.879Z,69.74
2018-07-25T07:05:11.188Z,67.95
2018-07-25T07:07:40.507Z,67.63
2018-07-25T07:10:09.811Z,66.86
2018-07-25T07:12:39.165Z,66.08
2018-07-25T07:15:09.694Z,65.28
2018-07-25T07:17:39.012Z,64.01
2018-07-25T07:20:09.315Z,65.07
2018-07-25T07:22:38.630Z,65.36
2018-07-25T07:25:08.203Z,65.49
2018-07-25T07:27:37.534Z,65.53
2018-07-25T07:30:07.555Z,63.75
2018-07-25T07:32:36.868Z,63.32
2018-07-25T07:35:06.239Z,62.66
2018-07-25T07:37:35.570Z,60.81
2018-07-25T07:40:04.948Z,60.75
2018-07-25T07:42:34.262Z,60.56
2018-07-25T07:45:03.599Z,59.11
2018-07-25T07:47:32.958Z,59.10
2018-07-25T07:50:01.983Z,59.13
2018-07-25T07:52:34.166Z,58.65
2018-07-25T07:55:03.253Z,57.14
2018-07-25T07:57:32.567Z,58.50
2018-07-25T08:00:01.654Z,58.78
2018-07-25T08:02:30.947Z,58.44
2018-07-25T08:05:00.288Z,57.30
2018-07-25T08:07:29.563Z,55.71
2018-07-25T08:09:58.641Z,55.51
2018-07-25T08:12:27.942Z,52.22
2018-07-25T08:14:57.314Z,49.60
2018-07-25T08:17:26.690Z,51.65
2018-07-25T08:19:56.084Z,52.46
2018-07-25T08:22:25.431Z,52.52
2018-07-25T08:24:54.796Z,51.86
2018-07-25T08:27:24.166Z,50.22
2018-07-25T08:29:53.276Z,51.39
2018-07-25T08:32:22.643Z,51.77
2018-07-25T08:34:52.119Z,51.71
2018-07-25T08:37:21.398Z,51.30
2018-07-25T08:39:50.768Z,51.25
2018-07-25T08:42:20.128Z,46.76
2018-07-25T08:44:49.506Z,49.64
2018-07-25T08:47:18.887Z,48.04
2018-07-25T08:49:48.254Z,47.07
2018-07-25T08:52:17.691Z,47.72
2018-07-25T08:54:47.074Z,44.93
2018-07-25T08:57:16.445Z,42.91
2018-07-25T08:59:45.814Z,43.46
2018-07-25T09:02:15.123Z,44.90
2018-07-25T09:04:44.437Z,46.37
2018-07-25T09:07:13.730Z,44.49
2018-07-25T09:09:43.061Z,43.53
2018-07-25T09:12:12.354Z,42.13
2018-07-25T09:14:41.913Z,41.84
2018-07-25T09:17:11.215Z,42.45
2018-07-25T09:19:40.537Z,45.34
2018-07-25T09:22:09.875Z,42.03
2018-07-25T09:24:39.223Z,41.67
2018-07-25T09:27:08.531Z,42.50
2018-07-25T09:29:37.852Z,38.96
2018-07-25T09:32:07.183Z,41.44
2018-07-25T09:34:36.503Z,42.88
2018-07-25T09:37:05.872Z,41.88
2018-07-25T09:39:35.309Z,43.63
2018-07-25T09:42:04.619Z,44.63
2018-07-25T09:44:33.926Z,42.76
2018-07-25T09:47:03.270Z,40.25
2018-07-25T09:49:32.550Z,40.84
2018-07-25T09:52:01.876Z,40.84
2018-07-25T09:54:31.207Z,43.53
2018-07-25T09:57:00.506Z,39.59
2018-07-25T09:59:29.581Z,39.35
2018-07-25T10:01:58.930Z,39.97
2018-07-25T10:04:28.315Z,39.55
2018-07-25T10:06:57.690Z,40.96
2018-07-25T10:09:27.066Z,40.59
2018-07-25T10:11:56.458Z,38.19
2018-07-25T10:14:25.818Z,38.52
2018-07-25T10:16:55.234Z,37.80
2018-07-25T10:19:24.603Z,38.77
2018-07-25T10:21:53.978Z,36.60
2018-07-25T10:24:23.387Z,38.00
2018-07-25T10:26:52.692Z,37.03
2018-07-25T10:29:22.403Z,37.11
2018-07-25T10:31:51.801Z,37.93
2018-07-25T10:34:21.204Z,38.99
2018-07-25T10:36:50.545Z,36.57
2018-07-25T10:39:19.936Z,39.79
2018-07-25T10:41:49.334Z,36.69
2018-07-25T10:44:18.736Z,38.34
2018-07-25T10:46:48.110Z,35.11
2018-07-25T10:49:17.503Z,35.78
2018-07-25T10:51:46.903Z,35.84
2018-07-25T10:54:16.271Z,36.34
2018-07-25T10:56:45.651Z,34.88
2018-07-25T10:59:15.017Z,39.80
2018-07-25T11:01:44.347Z,36.15
2018-07-25T11:04:13.661Z,40.41
2018-07-25T11:06:42.994Z,36.00
2018-07-25T11:09:12.307Z,36.06
2018-07-25T11:11:41.667Z,37.28
2018-07-25T11:14:10.987Z,37.41
2018-07-25T11:16:40.306Z,35.55
2018-07-25T11:19:09.720Z,36.67
2018-07-25T11:21:39.034Z,35.79
2018-07-25T11:24:08.586Z,35.06
2018-07-25T11:26:38.035Z,36.37
2018-07-25T11:29:07.352Z,38.00
2018-07-25T11:31:36.460Z,39.94
2018-07-25T11:34:05.820Z,35.88
2018-07-25T11:36:35.130Z,40.54
2018-07-25T11:39:07.051Z,34.45
2018-07-25T11:41:36.372Z,34.86
2018-07-25T11:44:05.692Z,36.49
2018-07-25T11:46:35.007Z,33.75
2018-07-25T11:49:04.320Z,33.87
2018-07-25T11:51:33.632Z,34.71
2018-07-25T11:54:02.957Z,37.37
2018-07-25T11:56:32.398Z,37.54
2018-07-25T11:59:01.718Z,33.28
2018-07-25T12:01:31.142Z,34.63
2018-07-25T12:04:00.230Z,33.33
2018-07-25T12:06:29.726Z,34.44
2018-07-25T12:08:58.991Z,33.79
2018-07-25T12:11:28.344Z,34.24
2018-07-25T12:13:57.746Z,37.27
2018-07-25T12:16:27.110Z,33.25
2018-07-25T12:18:56.615Z,37.93
2018-07-25T12:21:25.728Z,34.03
2018-07-25T12:23:55.108Z,35.38
2018-07-25T12:26:24.479Z,33.94
2018-07-25T12:28:53.855Z,34.48
2018-07-25T12:31:23.218Z,33.37
2018-07-25T12:33:52.334Z,34.21
2018-07-25T12:36:21.708Z,34.06
2018-07-25T12:38:51.078Z,34.97
2018-07-25T12:41:20.518Z,34.46
2018-07-25T12:43:49.638Z,33.22
2018-07-25T12:46:19.014Z,32.92
2018-07-25T12:48:48.403Z,27.29
2018-07-25T12:51:17.779Z,29.28
2018-07-25T12:53:47.177Z,29.70
2018-07-25T12:56:16.519Z,31.67
2018-07-25T12:58:45.637Z,30.93
2018-07-25T13:01:15.014Z,25.88
2018-07-25T13:03:44.406Z,26.07
2018-07-25T13:06:13.787Z,29.81
2018-07-25T13:08:43.170Z,29.25
2018-07-25T13:11:12.539Z,27.25
2018-07-25T13:13:41.923Z,23.45
2018-07-25T13:16:11.291Z,25.71
2018-07-25T13:18:41.062Z,26.16
2018-07-25T13:21:10.449Z,26.82
2018-07-25T13:23:39.825Z,25.63
2018-07-25T13:26:09.391Z,25.35
2018-07-25T13:28:38.785Z,24.88
2018-07-25T13:31:08.451Z,26.09
2018-07-25T13:33:37.832Z,25.64
2018-07-25T13:36:07.224Z,27.79
2018-07-25T13:38:36.567Z,28.78
2018-07-25T13:41:05.950Z,28.11
2018-07-25T13:43:35.345Z,27.21
2018-07-25T13:46:04.848Z,25.03
2018-07-25T13:48:34.127Z,27.82
2018-07-25T13:51:03.493Z,29.30
2018-07-25T13:53:32.866Z,25.60
2018-07-25T13:56:02.255Z,27.38
2018-07-25T13:58:31.617Z,25.87
2018-07-25T14:01:00.953Z,28.87
2018-07-25T14:03:30.255Z,30.19
2018-07-25T14:05:59.571Z,30.49
2018-07-25T14:08:28.893Z,31.61
2018-07-25T14:10:58.223Z,30.95
2018-07-25T14:13:27.564Z,31.80
2018-07-25T14:15:56.895Z,33.33
2018-07-25T14:18:26.219Z,32.62
2018-07-25T14:20:55.539Z,30.99
2018-07-25T14:23:24.846Z,32.03
2018-07-25T14:25:54.166Z,33.13
2018-07-25T14:28:23.532Z,32.98
2018-07-25T14:30:52.847Z,34.48
2018-07-25T14:33:22.162Z,34.97
2018-07-25T14:35:51.488Z,35.17
2018-07-25T14:38:20.565Z,35.01
2018-07-25T14:40:49.910Z,35.21
2018-07-25T14:43:19.267Z,34.85
2018-07-25T14:45:48.535Z,33.27
2018-07-25T14:48:17.846Z,33.34
2018-07-25T14:50:47.162Z,33.84
2018-07-25T14:53:16.484Z,32.19
2018-07-25T14:55:45.595Z,35.10
2018-07-25T14:58:14.643Z,32.96
2018-07-25T15:00:44.032Z,33.85
2018-07-25T15:03:13.395Z,35.17
2018-07-25T15:05:42.784Z,35.46
2018-07-25T15:08:12.152Z,34.97
2018-07-25T15:10:41.547Z,34.84
2018-07-25T15:13:10.990Z,33.37
2018-07-25T15:15:40.287Z,30.80
2018-07-25T15:18:09.648Z,28.98
2018-07-25T15:20:39.028Z,28.78
2018-07-25T15:23:08.387Z,29.97
2018-07-25T15:25:37.770Z,27.93
2018-07-25T15:28:07.182Z,30.44
2018-07-25T15:30:36.537Z,27.60
2018-07-25T15:33:05.911Z,26.82
2018-07-25T15:35:35.296Z,27.65
2018-07-25T15:38:04.504Z,31.01
2018-07-25T15:40:33.620Z,33.44
2018-07-25T15:43:02.990Z,32.85
2018-07-25T15:45:32.114Z,33.85
2018-07-25T15:48:01.472Z,33.52
2018-07-25T15:50:30.859Z,33.26
2018-07-25T15:53:00.233Z,33.32
2018-07-25T15:55:29.756Z,33.05
2018-07-25T15:57:59.138Z,34.81
2018-07-25T16:00:28.456Z,35.09
2018-07-25T16:02:57.793Z,35.27
2018-07-25T16:05:26.886Z,36.23
2018-07-25T16:07:55.965Z,36.89
2018-07-25T16:10:25.290Z,37.83
2018-07-25T16:12:54.367Z,38.04
2018-07-25T16:15:23.714Z,38.82
2018-07-25T16:17:52.987Z,37.96
2018-07-25T16:20:22.055Z,37.25
2018-07-25T16:22:51.377Z,35.11
2018-07-25T16:25:20.449Z,34.69
2018-07-25T16:27:49.783Z,35.76
2018-07-25T16:30:19.096Z,36.30
2018-07-25T16:32:48.423Z,36.32
2018-07-25T16:35:17.758Z,36.35
2018-07-25T16:37:47.048Z,36.92
2018-07-25T16:40:16.405Z,37.45
2018-07-25T16:42:45.703Z,37.23
2018-07-25T16:45:15.127Z,35.94
2018-07-25T16:47:44.488Z,36.97
2018-07-25T16:50:13.780Z,36.64
2018-07-25T16:52:42.870Z,37.67
2018-07-25T16:55:12.373Z,39.45
2018-07-25T16:57:43.566Z,39.34
2018-07-25T17:00:12.909Z,38.78
2018-07-25T17:02:42.286Z,38.02
2018-07-25T17:05:11.598Z,37.10
2018-07-25T17:07:40.927Z,36.14
2018-07-25T17:10:10.006Z,35.27
2018-07-25T17:12:39.346Z,34.21
2018-07-25T17:15:08.666Z,34.37
2018-07-25T17:17:37.999Z,33.30
2018-07-25T17:20:07.728Z,32.35
2018-07-25T17:22:36.815Z,33.04
2018-07-25T17:25:06.372Z,33.64
2018-07-25T17:27:35.719Z,35.31
2018-07-25T17:30:05.958Z,35.76
2018-07-25T17:32:35.307Z,36.01
2018-07-25T17:35:04.972Z,36.40
2018-07-25T17:37:34.334Z,39.55
2018-07-25T17:40:03.786Z,44.56
2018-07-25T17:42:33.122Z,45.25
2018-07-25T17:45:02.450Z,48.45
2018-07-25T17:47:31.762Z,48.62
2018-07-25T17:50:00.856Z,50.45
2018-07-25T17:52:29.950Z,49.60
2018-07-25T17:54:59.268Z,49.13
2018-07-25T17:57:28.601Z,49.73
2018-07-25T17:59:58.030Z,51.37
2018-07-25T18:02:27.539Z,52.99
2018-07-25T18:04:57.205Z,50.45
2018-07-25T18:07:26.619Z,50.18
2018-07-25T18:09:56.080Z,50.73
2018-07-25T18:12:25.461Z,51.71
2018-07-25T18:14:54.849Z,52.39
2018-07-25T18:17:24.239Z,52.97
2018-07-25T18:19:53.636Z,53.32
2018-07-25T18:22:23.000Z,53.46
2018-07-25T18:24:52.121Z,53.41
2018-07-25T18:27:21.512Z,52.09
2018-07-25T18:29:50.901Z,53.00
2018-07-25T18:32:20.283Z,53.47
2018-07-25T18:34:49.690Z,53.22
2018-07-25T18:37:18.853Z,53.32
2018-07-25T18:39:48.235Z,54.18
2018-07-25T18:42:17.619Z,55.14
2018-07-25T18:44:46.993Z,55.33
2018-07-25T18:47:16.118Z,56.85
2018-07-25T18:49:45.630Z,56.61
2018-07-25T18:52:15.026Z,57.42
2018-07-25T18:54:44.416Z,56.46
2018-07-25T18:57:13.812Z,56.20
2018-07-25T18:59:43.758Z,56.43
2018-07-25T19:02:13.316Z,55.93
2018-07-25T19:04:42.414Z,54.15
2018-07-25T19:07:11.615Z,54.24
2018-07-25T19:09:40.906Z,54.58
2018-07-25T19:12:10.243Z,55.77
2018-07-25T19:14:44.943Z,55.73
2018-07-25T19:17:15.304Z,58.89
2018-07-25T19:19:45.249Z,59.50
2018-07-25T19:22:14.579Z,59.32
2018-07-25T19:24:43.687Z,58.78
2018-07-25T19:27:12.756Z,59.92
2018-07-25T19:29:42.111Z,62.29
2018-07-25T19:32:12.105Z,62.61
2018-07-25T19:34:41.447Z,62.37
2018-07-25T19:37:10.758Z,62.31
2018-07-25T19:39:40.117Z,61.88
2018-07-25T19:42:10.248Z,62.08
2018-07-25T19:44:39.610Z,62.58
2018-07-25T19:47:09.539Z,61.70
2018-07-25T19:49:38.970Z,62.38
2018-07-25T19:52:08.598Z,61.02
2018-07-25T19:54:37.940Z,60.48
2018-07-25T19:57:07.035Z,59.26
2018-07-25T19:59:36.129Z,59.32
2018-07-25T20:02:05.242Z,59.87
2018-07-25T20:04:34.659Z,59.84
2018-07-25T20:07:04.005Z,61.24
2018-07-25T20:09:33.347Z,62.99
2018-07-25T20:12:02.670Z,64.24
2018-07-25T20:14:37.268Z,65.05
2018-07-25T20:17:06.634Z,67.08
2018-07-25T20:19:35.993Z,68.24
2018-07-25T20:22:05.309Z,68.73
2018-07-25T20:24:34.648Z,68.53
2018-07-25T20:27:03.993Z,69.23
2018-07-25T20:29:33.373Z,68.14
2018-07-25T20:32:02.651Z,68.24
2018-07-25T20:34:32.020Z,66.96
2018-07-25T20:37:01.353Z,66.67
2018-07-25T20:39:30.468Z,68.10
2018-07-25T20:41:59.571Z,67.52
2018-07-25T20:44:28.952Z,68.00
2018-07-25T20:46:58.323Z,67.90
2018-07-25T20:49:27.686Z,68.85
2018-07-25T20:51:57.091Z,67.72
2018-07-25T20:54:26.498Z,67.09
2018-07-25T20:56:55.895Z,66.06
2018-07-25T20:59:25.259Z,66.89
2018-07-25T21:01:54.405Z,67.28
2018-07-25T21:04:23.767Z,66.17
2018-07-25T21:06:52.885Z,67.36
2018-07-25T21:09:22.244Z,67.05
2018-07-25T21:11:51.617Z,66.74
2018-07-25T21:14:21.443Z,67.23
2018-07-25T21:16:50.846Z,67.01
2018-07-25T21:19:20.200Z,68.82
2018-07-25T21:21:49.632Z,67.95
2018-07-25T21:24:18.959Z,68.60
2018-07-25T21:26:48.323Z,69.17
2018-07-25T21:29:17.708Z,69.61
2018-07-25T21:31:47.096Z,69.12
2018-07-25T21:34:16.455Z,68.12
2018-07-25T21:36:45.786Z,66.79
2018-07-25T21:39:15.115Z,67.08
2018-07-25T21:41:44.461Z,65.61
2018-07-25T21:44:13.779Z,65.26
2018-07-25T21:46:42.879Z,65.26
2018-07-25T21:49:11.949Z,66.08
2018-07-25T21:51:41.284Z,66.59
2018-07-25T21:54:10.614Z,66.49
2018-07-25T21:56:39.975Z,66.74
2018-07-25T21:59:09.288Z,66.87
2018-07-25T22:01:38.688Z,67.61
2018-07-25T22:04:08.819Z,68.56
2018-07-25T22:06:38.208Z,69.40
2018-07-25T22:09:10.734Z,69.82
2018-07-25T22:11:40.719Z,69.81
2018-07-25T22:14:10.103Z,70.21
2018-07-25T22:16:39.499Z,70.24
2018-07-25T22:19:08.863Z,71.75
2018-07-25T22:21:38.247Z,71.02
2018-07-25T22:24:07.632Z,71.95
2018-07-25T22:26:37.019Z,72.15
2018-07-25T22:29:06.403Z,72.06
2018-07-25T22:31:35.535Z,72.57
2018-07-25T22:34:04.912Z,73.25
2018-07-25T22:36:34.046Z,72.27
2018-07-25T22:39:03.542Z,73.22
2018-07-25T22:41:32.952Z,72.56
2018-07-25T22:44:02.386Z,73.02
2018-07-25T22:46:31.747Z,73.74
2018-07-25T22:49:01.443Z,73.67
2018-07-25T22:51:30.824Z,73.46
2018-07-25T22:53:59.947Z,73.78
2018-07-25T22:56:29.335Z,73.36
2018-07-25T22:58:58.750Z,73.26
2018-07-25T23:01:28.168Z,72.82
2018-07-25T23:03:57.573Z,72.18
2018-07-25T23:06:26.955Z,73.16
2018-07-25T23:08:56.350Z,73.46
2018-07-25T23:11:25.740Z,74.05
2018-07-25T23:13:55.220Z,74.33
2018-07-25T23:16:24.608Z,74.21
2018-07-25T23:18:54.060Z,75.56
2018-07-25T23:21:23.158Z,73.10
2018-07-25T23:23:52.550Z,73.48
2018-07-25T23:26:21.931Z,73.39
2018-07-25T23:28:51.079Z,73.57
2018-07-25T23:31:20.458Z,73.77
2018-07-25T23:33:49.846Z,73.94
2018-07-25T23:36:18.967Z,74.44
2018-07-25T23:38:48.355Z,73.77
2018-07-25T23:41:17.739Z,72.88
2018-07-25T23:43:46.868Z,73.32
2018-07-25T23:46:16.253Z,72.66
2018-07-25T23:48:45.864Z,73.31
2018-07-25T23:51:15.344Z,73.97
2018-07-25T23:53:44.741Z,74.57
2018-07-25T23:56:13.854Z,73.92
2018-07-25T23:58:43.254Z,73.32
